MTPPMDST

Guest
Details From MTPP - TOUSSAINT LOUVERTURE INTL
To MDST - Santiago Cibao Intl
Flight Number -
Tags decoded
Created
Modified
Stats Distance 114 nm / 211 km
Max Altitude 0 ft / 0 m
Waypoints 4
Social Downloads 1
Likes 0
Share VATSIM

Download

Looking for another format? Having issues loading an existing format? Contact us
Advertisement - Login to hide

Notes

Requested: MTPP ETBOD PODAK MDST

Route

MTPP ETBOD PODAK MDST

ID Type Via Altitude Latitude Longitude Leg Dist Tot Dist Heading (true) Name
O MTPP APT - 0 ft / 0 m 18.58005˚ -72.29254˚ - 0 nm - TOUSSAINT LOUVERTURE INTL
ETBOD FIX - 0 ft / 0 m 18.51667˚ -71.88333˚ 23 nm 23 nm 99° / 99° -
PODAK FIX - 0 ft / 0 m 19.27528˚ -70.79528˚ 76 nm 100 nm 53° / 54° -
O MDST APT - 0 ft / 0 m 19.40609˚ -70.60469˚ 13 nm 113 nm 54° / 54° Santiago Cibao Intl

Altitude Profile

Advertisement - Login to hide

MTPP

Details ICAO MTPP (PAP)
Name TOUSSAINT LOUVERTURE INTL
Region Haiti
Timezone America/Port-au-Prince (UTC-5.0)
Stats Elevation 122 ft / 37 m (AMSL)
Location 18.580051° -72.292540°
Runways 1
Magnetic Variation 10.191° W

METAR

MTPP 111400Z 13007KT 9000 FEW020 28/22 Q1014 A2995

Decode

TAF

TAF MTPP 111100Z 1112/1212 018/1118 13005KT 9000 FEW018 BECMG 1118/1122 30008KT PROB30 TEMPO 1123/1204 4500 SHRA FEW020CB BKN030 BECMG 1206/1210 VRB02KT 8000 NSW FEW016 SCT020

Decode

Departure Runways

ID Width Length Bearing (true) Bearing (mag) Surface Threshold Offset Overrun Length
10 141 ft / 43 m 9,963 ft / 3,037 m 86.96° 97.15° Asphalt 0 ft / 0 m 0 ft / 0 m
28 141 ft / 43 m 9,963 ft / 3,037 m 266.97° 277.16° Asphalt 0 ft / 0 m 0 ft / 0 m

MDST

Details ICAO MDST (STI)
Name Santiago Cibao Intl
Region Dominican Republic
Timezone America/Santo_Domingo (UTC-4.0)
Stats Elevation 563 ft / 172 m (AMSL)
Location 19.406091° -70.604689°
Runways 1
Magnetic Variation 11.170° W

METAR

MDST 111500Z 12007KT 090V160 9999 FEW022 27/21 Q1015

Decode

TAF

Not found

Destination Runways

ID Width Length Bearing (true) Bearing (mag) Surface Threshold Offset Overrun Length
11 148 ft / 45 m 8,619 ft / 2,627 m 103.07° 114.24° Asphalt 0 ft / 0 m 200 ft / 61 m
29 148 ft / 45 m 8,619 ft / 2,627 m 283.08° 294.25° Asphalt 0 ft / 0 m 200 ft / 61 m

Approach Navaids

Runway Type Ident Frequency Range Bearing (true) Bearing (mag) Slope Elevation
11 Localiser EXP 109.30 MHz 18 nm / 33 km 103.11° 114.28° - 565 ft / 172 m (AMSL)
11 Glidescope EXP 109.30 MHz 10 nm / 19 km 103.08° 114.25° 2.80° 565 ft / 172 m (AMSL)
11 DME EXP 109.30 MHz 18 nm / 33 km - - - 563 ft / 172 m (AMSL)

Popular Alternatives